<?xml version="1.0" encoding="UTF-8" standalone="no" ?>
<gpx xmlns="http://www.topografix.com/GPX/1/1" xmlns:xsi="http://www.w3.org/2001/XMLSchema-instance" xsi:schemaLocation="http://www.topografix.com/GPX/1/1 http://www.topografix.com/GPX/1/1/gpx.xsd" version="1.1" creator="VisuGPX - https://www.visugpx.com">
  <metadata>
    <name>Circuit du 10-09-2012</name>
    <desc><![CDATA[Circuit du 10-09-2012]]></desc>
  </metadata>
  <wpt lat="45.38454" lon="3.7539">
    <ele>664.29998779297</ele>
    <name><![CDATA[Start]]></name>
  </wpt>
  <wpt lat="45.38417" lon="3.7525">
    <ele>666.29998779297</ele>
    <name><![CDATA[End]]></name>
  </wpt>
  <trk>
    <name><![CDATA[Circuit du 10-09-2012_1]]></name>
    <trkseg>
      <trkpt lat="45.38454" lon="3.7539">
        <ele>664.29998779297</ele>
        <time>2012-09-10T16:41:39Z</time>
      </trkpt>
      <trkpt lat="45.38455" lon="3.75399">
        <ele>663.29998779297</ele>
        <time>2012-09-10T16:41:42Z</time>
      </trkpt>
      <trkpt lat="45.38457" lon="3.75408">
        <ele>663.20001220703</ele>
        <time>2012-09-10T16:41:45Z</time>
      </trkpt>
      <trkpt lat="45.38461" lon="3.75414">
        <ele>665.40002441406</ele>
        <time>2012-09-10T16:41:47Z</time>
      </trkpt>
      <trkpt lat="45.38462" lon="3.7542">
        <ele>666.5</ele>
        <time>2012-09-10T16:41:49Z</time>
      </trkpt>
      <trkpt lat="45.38465" lon="3.75428">
        <ele>666.79998779297</ele>
        <time>2012-09-10T16:41:51Z</time>
      </trkpt>
      <trkpt lat="45.38467" lon="3.75435">
        <ele>665.59997558594</ele>
        <time>2012-09-10T16:41:53Z</time>
      </trkpt>
      <trkpt lat="45.3847" lon="3.75441">
        <ele>666</ele>
        <time>2012-09-10T16:41:55Z</time>
      </trkpt>
      <trkpt lat="45.38475" lon="3.75446">
        <ele>665.5</ele>
        <time>2012-09-10T16:41:58Z</time>
      </trkpt>
      <trkpt lat="45.38473" lon="3.75454">
        <ele>666.20001220703</ele>
        <time>2012-09-10T16:42:00Z</time>
      </trkpt>
      <trkpt lat="45.38474" lon="3.7546">
        <ele>666.70001220703</ele>
        <time>2012-09-10T16:42:02Z</time>
      </trkpt>
      <trkpt lat="45.38476" lon="3.75468">
        <ele>666.20001220703</ele>
        <time>2012-09-10T16:42:05Z</time>
      </trkpt>
      <trkpt lat="45.38479" lon="3.7548">
        <ele>665.09997558594</ele>
        <time>2012-09-10T16:42:10Z</time>
      </trkpt>
      <trkpt lat="45.38481" lon="3.75486">
        <ele>665</ele>
        <time>2012-09-10T16:42:13Z</time>
      </trkpt>
      <trkpt lat="45.38484" lon="3.75491">
        <ele>665.59997558594</ele>
        <time>2012-09-10T16:42:15Z</time>
      </trkpt>
      <trkpt lat="45.38488" lon="3.755">
        <ele>665</ele>
        <time>2012-09-10T16:42:19Z</time>
      </trkpt>
      <trkpt lat="45.38492" lon="3.75521">
        <ele>666.79998779297</ele>
        <time>2012-09-10T16:42:23Z</time>
      </trkpt>
      <trkpt lat="45.38494" lon="3.75529">
        <ele>667.79998779297</ele>
        <time>2012-09-10T16:42:25Z</time>
      </trkpt>
      <trkpt lat="45.38499" lon="3.75537">
        <ele>670.40002441406</ele>
        <time>2012-09-10T16:42:29Z</time>
      </trkpt>
      <trkpt lat="45.38501" lon="3.75543">
        <ele>669.79998779297</ele>
        <time>2012-09-10T16:42:32Z</time>
      </trkpt>
      <trkpt lat="45.38505" lon="3.75555">
        <ele>669.09997558594</ele>
        <time>2012-09-10T16:42:36Z</time>
      </trkpt>
      <trkpt lat="45.38506" lon="3.75548">
        <ele>666.59997558594</ele>
        <time>2012-09-10T16:42:38Z</time>
      </trkpt>
      <trkpt lat="45.38503" lon="3.75555">
        <ele>663</ele>
        <time>2012-09-10T16:42:49Z</time>
      </trkpt>
      <trkpt lat="45.38504" lon="3.75561">
        <ele>662.70001220703</ele>
        <time>2012-09-10T16:42:54Z</time>
      </trkpt>
      <trkpt lat="45.38504" lon="3.75568">
        <ele>662</ele>
        <time>2012-09-10T16:42:58Z</time>
      </trkpt>
      <trkpt lat="45.38505" lon="3.75575">
        <ele>661.70001220703</ele>
        <time>2012-09-10T16:43:00Z</time>
      </trkpt>
      <trkpt lat="45.38506" lon="3.7559">
        <ele>661.90002441406</ele>
        <time>2012-09-10T16:43:08Z</time>
      </trkpt>
      <trkpt lat="45.38509" lon="3.75595">
        <ele>661.09997558594</ele>
        <time>2012-09-10T16:43:11Z</time>
      </trkpt>
      <trkpt lat="45.38513" lon="3.756">
        <ele>659.79998779297</ele>
        <time>2012-09-10T16:43:15Z</time>
      </trkpt>
      <trkpt lat="45.38511" lon="3.75607">
        <ele>660.09997558594</ele>
        <time>2012-09-10T16:43:20Z</time>
      </trkpt>
      <trkpt lat="45.3851" lon="3.75614">
        <ele>660</ele>
        <time>2012-09-10T16:43:24Z</time>
      </trkpt>
      <trkpt lat="45.38513" lon="3.75621">
        <ele>661.5</ele>
        <time>2012-09-10T16:43:29Z</time>
      </trkpt>
      <trkpt lat="45.38515" lon="3.75628">
        <ele>661.5</ele>
        <time>2012-09-10T16:43:34Z</time>
      </trkpt>
      <trkpt lat="45.38516" lon="3.75635">
        <ele>661.29998779297</ele>
        <time>2012-09-10T16:43:37Z</time>
      </trkpt>
      <trkpt lat="45.3852" lon="3.7564">
        <ele>662</ele>
        <time>2012-09-10T16:43:41Z</time>
      </trkpt>
      <trkpt lat="45.38521" lon="3.75648">
        <ele>661.5</ele>
        <time>2012-09-10T16:43:46Z</time>
      </trkpt>
      <trkpt lat="45.38518" lon="3.75654">
        <ele>660.90002441406</ele>
        <time>2012-09-10T16:43:50Z</time>
      </trkpt>
      <trkpt lat="45.3852" lon="3.75659">
        <ele>660.29998779297</ele>
        <time>2012-09-10T16:43:54Z</time>
      </trkpt>
      <trkpt lat="45.38523" lon="3.75665">
        <ele>661.59997558594</ele>
        <time>2012-09-10T16:43:57Z</time>
      </trkpt>
      <trkpt lat="45.38528" lon="3.75667">
        <ele>661.09997558594</ele>
        <time>2012-09-10T16:44:01Z</time>
      </trkpt>
      <trkpt lat="45.38534" lon="3.75673">
        <ele>662.09997558594</ele>
        <time>2012-09-10T16:44:08Z</time>
      </trkpt>
      <trkpt lat="45.38538" lon="3.75676">
        <ele>661</ele>
        <time>2012-09-10T16:44:13Z</time>
      </trkpt>
      <trkpt lat="45.38549" lon="3.75676">
        <ele>662.40002441406</ele>
        <time>2012-09-10T16:44:28Z</time>
      </trkpt>
      <trkpt lat="45.38554" lon="3.75674">
        <ele>663.70001220703</ele>
        <time>2012-09-10T16:44:33Z</time>
      </trkpt>
      <trkpt lat="45.3856" lon="3.75674">
        <ele>663.20001220703</ele>
        <time>2012-09-10T16:44:37Z</time>
      </trkpt>
      <trkpt lat="45.38565" lon="3.75676">
        <ele>663</ele>
        <time>2012-09-10T16:44:40Z</time>
      </trkpt>
      <trkpt lat="45.3857" lon="3.75678">
        <ele>663.40002441406</ele>
        <time>2012-09-10T16:44:42Z</time>
      </trkpt>
      <trkpt lat="45.38576" lon="3.7568">
        <ele>663.59997558594</ele>
        <time>2012-09-10T16:44:45Z</time>
      </trkpt>
      <trkpt lat="45.3858" lon="3.75685">
        <ele>662.70001220703</ele>
        <time>2012-09-10T16:44:49Z</time>
      </trkpt>
      <trkpt lat="45.38599" lon="3.7569">
        <ele>662.29998779297</ele>
        <time>2012-09-10T16:44:57Z</time>
      </trkpt>
      <trkpt lat="45.38604" lon="3.75694">
        <ele>661.90002441406</ele>
        <time>2012-09-10T16:45:00Z</time>
      </trkpt>
      <trkpt lat="45.38611" lon="3.75702">
        <ele>662</ele>
        <time>2012-09-10T16:45:05Z</time>
      </trkpt>
      <trkpt lat="45.38619" lon="3.75711">
        <ele>663.79998779297</ele>
        <time>2012-09-10T16:45:10Z</time>
      </trkpt>
      <trkpt lat="45.38623" lon="3.75719">
        <ele>664.70001220703</ele>
        <time>2012-09-10T16:45:15Z</time>
      </trkpt>
      <trkpt lat="45.38625" lon="3.75725">
        <ele>665.5</ele>
        <time>2012-09-10T16:45:18Z</time>
      </trkpt>
      <trkpt lat="45.3863" lon="3.75729">
        <ele>666.09997558594</ele>
        <time>2012-09-10T16:45:20Z</time>
      </trkpt>
      <trkpt lat="45.38634" lon="3.75737">
        <ele>666</ele>
        <time>2012-09-10T16:45:23Z</time>
      </trkpt>
      <trkpt lat="45.38639" lon="3.7574">
        <ele>666</ele>
        <time>2012-09-10T16:45:25Z</time>
      </trkpt>
      <trkpt lat="45.38644" lon="3.75746">
        <ele>666.29998779297</ele>
        <time>2012-09-10T16:45:28Z</time>
      </trkpt>
      <trkpt lat="45.38647" lon="3.75751">
        <ele>665.5</ele>
        <time>2012-09-10T16:45:31Z</time>
      </trkpt>
      <trkpt lat="45.38652" lon="3.75754">
        <ele>665.79998779297</ele>
        <time>2012-09-10T16:45:33Z</time>
      </trkpt>
      <trkpt lat="45.38657" lon="3.75758">
        <ele>665.79998779297</ele>
        <time>2012-09-10T16:45:35Z</time>
      </trkpt>
      <trkpt lat="45.38662" lon="3.75762">
        <ele>665.5</ele>
        <time>2012-09-10T16:45:37Z</time>
      </trkpt>
      <trkpt lat="45.38668" lon="3.75766">
        <ele>666.59997558594</ele>
        <time>2012-09-10T16:45:40Z</time>
      </trkpt>
      <trkpt lat="45.38671" lon="3.75772">
        <ele>668.70001220703</ele>
        <time>2012-09-10T16:45:44Z</time>
      </trkpt>
      <trkpt lat="45.38675" lon="3.75779">
        <ele>668.59997558594</ele>
        <time>2012-09-10T16:45:47Z</time>
      </trkpt>
      <trkpt lat="45.38679" lon="3.75784">
        <ele>668</ele>
        <time>2012-09-10T16:45:50Z</time>
      </trkpt>
      <trkpt lat="45.38682" lon="3.75789">
        <ele>668.20001220703</ele>
        <time>2012-09-10T16:45:52Z</time>
      </trkpt>
      <trkpt lat="45.38689" lon="3.75793">
        <ele>669.40002441406</ele>
        <time>2012-09-10T16:45:55Z</time>
      </trkpt>
      <trkpt lat="45.38694" lon="3.758">
        <ele>670.79998779297</ele>
        <time>2012-09-10T16:45:58Z</time>
      </trkpt>
      <trkpt lat="45.38699" lon="3.75805">
        <ele>670.90002441406</ele>
        <time>2012-09-10T16:46:01Z</time>
      </trkpt>
      <trkpt lat="45.38703" lon="3.7581">
        <ele>671.29998779297</ele>
        <time>2012-09-10T16:46:04Z</time>
      </trkpt>
      <trkpt lat="45.38708" lon="3.75816">
        <ele>672</ele>
        <time>2012-09-10T16:46:07Z</time>
      </trkpt>
      <trkpt lat="45.38713" lon="3.75823">
        <ele>673.09997558594</ele>
        <time>2012-09-10T16:46:10Z</time>
      </trkpt>
      <trkpt lat="45.38717" lon="3.75829">
        <ele>672.29998779297</ele>
        <time>2012-09-10T16:46:13Z</time>
      </trkpt>
      <trkpt lat="45.3872" lon="3.75835">
        <ele>672.79998779297</ele>
        <time>2012-09-10T16:46:16Z</time>
      </trkpt>
      <trkpt lat="45.38722" lon="3.75843">
        <ele>672.79998779297</ele>
        <time>2012-09-10T16:46:19Z</time>
      </trkpt>
      <trkpt lat="45.38725" lon="3.75847">
        <ele>672.59997558594</ele>
        <time>2012-09-10T16:46:24Z</time>
      </trkpt>
      <trkpt lat="45.38729" lon="3.75852">
        <ele>672.29998779297</ele>
        <time>2012-09-10T16:46:27Z</time>
      </trkpt>
      <trkpt lat="45.38733" lon="3.75856">
        <ele>672.5</ele>
        <time>2012-09-10T16:46:32Z</time>
      </trkpt>
      <trkpt lat="45.38736" lon="3.75862">
        <ele>672.29998779297</ele>
        <time>2012-09-10T16:46:38Z</time>
      </trkpt>
      <trkpt lat="45.38739" lon="3.75868">
        <ele>671.59997558594</ele>
        <time>2012-09-10T16:46:45Z</time>
      </trkpt>
      <trkpt lat="45.38741" lon="3.75874">
        <ele>672.20001220703</ele>
        <time>2012-09-10T16:46:49Z</time>
      </trkpt>
      <trkpt lat="45.38746" lon="3.75877">
        <ele>669.70001220703</ele>
        <time>2012-09-10T16:46:55Z</time>
      </trkpt>
      <trkpt lat="45.3875" lon="3.75879">
        <ele>668.79998779297</ele>
        <time>2012-09-10T16:47:00Z</time>
      </trkpt>
      <trkpt lat="45.38755" lon="3.75883">
        <ele>667.90002441406</ele>
        <time>2012-09-10T16:47:03Z</time>
      </trkpt>
      <trkpt lat="45.38759" lon="3.75886">
        <ele>666.40002441406</ele>
        <time>2012-09-10T16:47:07Z</time>
      </trkpt>
      <trkpt lat="45.38762" lon="3.75891">
        <ele>667</ele>
        <time>2012-09-10T16:47:11Z</time>
      </trkpt>
      <trkpt lat="45.38763" lon="3.75898">
        <ele>667.40002441406</ele>
        <time>2012-09-10T16:47:15Z</time>
      </trkpt>
      <trkpt lat="45.38767" lon="3.75903">
        <ele>667.40002441406</ele>
        <time>2012-09-10T16:47:20Z</time>
      </trkpt>
      <trkpt lat="45.38772" lon="3.7591">
        <ele>666.59997558594</ele>
        <time>2012-09-10T16:47:26Z</time>
      </trkpt>
      <trkpt lat="45.38779" lon="3.75911">
        <ele>666.59997558594</ele>
        <time>2012-09-10T16:47:30Z</time>
      </trkpt>
      <trkpt lat="45.38784" lon="3.75912">
        <ele>666.70001220703</ele>
        <time>2012-09-10T16:47:35Z</time>
      </trkpt>
      <trkpt lat="45.3879" lon="3.75913">
        <ele>667.29998779297</ele>
        <time>2012-09-10T16:47:39Z</time>
      </trkpt>
      <trkpt lat="45.38795" lon="3.75911">
        <ele>666.5</ele>
        <time>2012-09-10T16:47:43Z</time>
      </trkpt>
      <trkpt lat="45.38804" lon="3.75909">
        <ele>667.5</ele>
        <time>2012-09-10T16:47:49Z</time>
      </trkpt>
      <trkpt lat="45.3881" lon="3.7591">
        <ele>666.09997558594</ele>
        <time>2012-09-10T16:47:53Z</time>
      </trkpt>
      <trkpt lat="45.38815" lon="3.75908">
        <ele>665.20001220703</ele>
        <time>2012-09-10T16:47:57Z</time>
      </trkpt>
      <trkpt lat="45.38819" lon="3.75912">
        <ele>664.40002441406</ele>
        <time>2012-09-10T16:48:02Z</time>
      </trkpt>
      <trkpt lat="45.38824" lon="3.75913">
        <ele>664.70001220703</ele>
        <time>2012-09-10T16:48:05Z</time>
      </trkpt>
      <trkpt lat="45.38828" lon="3.75916">
        <ele>664.79998779297</ele>
        <time>2012-09-10T16:48:09Z</time>
      </trkpt>
      <trkpt lat="45.38833" lon="3.75919">
        <ele>666.20001220703</ele>
        <time>2012-09-10T16:48:13Z</time>
      </trkpt>
      <trkpt lat="45.38839" lon="3.75918">
        <ele>665.59997558594</ele>
        <time>2012-09-10T16:48:17Z</time>
      </trkpt>
      <trkpt lat="45.38844" lon="3.75918">
        <ele>664.20001220703</ele>
        <time>2012-09-10T16:48:22Z</time>
      </trkpt>
      <trkpt lat="45.38849" lon="3.75917">
        <ele>664</ele>
        <time>2012-09-10T16:48:25Z</time>
      </trkpt>
      <trkpt lat="45.38854" lon="3.75916">
        <ele>663.40002441406</ele>
        <time>2012-09-10T16:48:34Z</time>
      </trkpt>
      <trkpt lat="45.3886" lon="3.75916">
        <ele>663</ele>
        <time>2012-09-10T16:48:39Z</time>
      </trkpt>
      <trkpt lat="45.38865" lon="3.75917">
        <ele>662.29998779297</ele>
        <time>2012-09-10T16:48:42Z</time>
      </trkpt>
      <trkpt lat="45.38869" lon="3.7592">
        <ele>662.40002441406</ele>
        <time>2012-09-10T16:48:45Z</time>
      </trkpt>
      <trkpt lat="45.38874" lon="3.75917">
        <ele>663.59997558594</ele>
        <time>2012-09-10T16:48:49Z</time>
      </trkpt>
      <trkpt lat="45.38879" lon="3.75919">
        <ele>662.40002441406</ele>
        <time>2012-09-10T16:48:55Z</time>
      </trkpt>
      <trkpt lat="45.38886" lon="3.7592">
        <ele>662.90002441406</ele>
        <time>2012-09-10T16:48:59Z</time>
      </trkpt>
      <trkpt lat="45.38896" lon="3.75922">
        <ele>663.5</ele>
        <time>2012-09-10T16:49:04Z</time>
      </trkpt>
      <trkpt lat="45.38903" lon="3.75923">
        <ele>664.29998779297</ele>
        <time>2012-09-10T16:49:08Z</time>
      </trkpt>
      <trkpt lat="45.38909" lon="3.75925">
        <ele>665.5</ele>
        <time>2012-09-10T16:49:13Z</time>
      </trkpt>
      <trkpt lat="45.38915" lon="3.75924">
        <ele>665.59997558594</ele>
        <time>2012-09-10T16:49:16Z</time>
      </trkpt>
      <trkpt lat="45.38921" lon="3.75924">
        <ele>666.5</ele>
        <time>2012-09-10T16:49:18Z</time>
      </trkpt>
      <trkpt lat="45.38925" lon="3.75924">
        <ele>665.40002441406</ele>
        <time>2012-09-10T16:49:21Z</time>
      </trkpt>
      <trkpt lat="45.3893" lon="3.75922">
        <ele>665.79998779297</ele>
        <time>2012-09-10T16:49:23Z</time>
      </trkpt>
      <trkpt lat="45.38935" lon="3.75922">
        <ele>664.79998779297</ele>
        <time>2012-09-10T16:49:25Z</time>
      </trkpt>
      <trkpt lat="45.38941" lon="3.75921">
        <ele>665.09997558594</ele>
        <time>2012-09-10T16:49:28Z</time>
      </trkpt>
      <trkpt lat="45.38948" lon="3.75921">
        <ele>665.20001220703</ele>
        <time>2012-09-10T16:49:31Z</time>
      </trkpt>
      <trkpt lat="45.38953" lon="3.75922">
        <ele>666.09997558594</ele>
        <time>2012-09-10T16:49:34Z</time>
      </trkpt>
      <trkpt lat="45.3896" lon="3.75923">
        <ele>665.90002441406</ele>
        <time>2012-09-10T16:49:37Z</time>
      </trkpt>
      <trkpt lat="45.38968" lon="3.75922">
        <ele>665.90002441406</ele>
        <time>2012-09-10T16:49:41Z</time>
      </trkpt>
      <trkpt lat="45.38971" lon="3.75926">
        <ele>666.5</ele>
        <time>2012-09-10T16:49:44Z</time>
      </trkpt>
      <trkpt lat="45.38977" lon="3.75929">
        <ele>666.79998779297</ele>
        <time>2012-09-10T16:49:47Z</time>
      </trkpt>
      <trkpt lat="45.38985" lon="3.75933">
        <ele>666.59997558594</ele>
        <time>2012-09-10T16:49:51Z</time>
      </trkpt>
      <trkpt lat="45.38989" lon="3.75937">
        <ele>667.20001220703</ele>
        <time>2012-09-10T16:49:53Z</time>
      </trkpt>
      <trkpt lat="45.38995" lon="3.75939">
        <ele>667.29998779297</ele>
        <time>2012-09-10T16:49:56Z</time>
      </trkpt>
      <trkpt lat="45.39" lon="3.75943">
        <ele>667.59997558594</ele>
        <time>2012-09-10T16:49:59Z</time>
      </trkpt>
      <trkpt lat="45.39008" lon="3.75945">
        <ele>667.70001220703</ele>
        <time>2012-09-10T16:50:12Z</time>
      </trkpt>
      <trkpt lat="45.39013" lon="3.7595">
        <ele>667.40002441406</ele>
        <time>2012-09-10T16:50:14Z</time>
      </trkpt>
      <trkpt lat="45.39019" lon="3.75953">
        <ele>665.40002441406</ele>
        <time>2012-09-10T16:50:16Z</time>
      </trkpt>
      <trkpt lat="45.39024" lon="3.75955">
        <ele>665.29998779297</ele>
        <time>2012-09-10T16:50:18Z</time>
      </trkpt>
      <trkpt lat="45.39031" lon="3.75957">
        <ele>664.59997558594</ele>
        <time>2012-09-10T16:50:21Z</time>
      </trkpt>
      <trkpt lat="45.39036" lon="3.75957">
        <ele>664.40002441406</ele>
        <time>2012-09-10T16:50:23Z</time>
      </trkpt>
      <trkpt lat="45.39041" lon="3.7596">
        <ele>664.5</ele>
        <time>2012-09-10T16:50:26Z</time>
      </trkpt>
      <trkpt lat="45.39047" lon="3.75961">
        <ele>663.79998779297</ele>
        <time>2012-09-10T16:50:29Z</time>
      </trkpt>
      <trkpt lat="45.39051" lon="3.75966">
        <ele>663</ele>
        <time>2012-09-10T16:50:32Z</time>
      </trkpt>
      <trkpt lat="45.39056" lon="3.75969">
        <ele>663.40002441406</ele>
        <time>2012-09-10T16:50:35Z</time>
      </trkpt>
      <trkpt lat="45.39061" lon="3.7597">
        <ele>664</ele>
        <time>2012-09-10T16:50:38Z</time>
      </trkpt>
      <trkpt lat="45.39066" lon="3.75974">
        <ele>664</ele>
        <time>2012-09-10T16:50:41Z</time>
      </trkpt>
      <trkpt lat="45.39071" lon="3.75975">
        <ele>663.79998779297</ele>
        <time>2012-09-10T16:50:43Z</time>
      </trkpt>
      <trkpt lat="45.39079" lon="3.75975">
        <ele>662.5</ele>
        <time>2012-09-10T16:50:46Z</time>
      </trkpt>
      <trkpt lat="45.39085" lon="3.75976">
        <ele>664.09997558594</ele>
        <time>2012-09-10T16:50:49Z</time>
      </trkpt>
      <trkpt lat="45.39089" lon="3.75977">
        <ele>663.59997558594</ele>
        <time>2012-09-10T16:50:52Z</time>
      </trkpt>
      <trkpt lat="45.39095" lon="3.75978">
        <ele>663.40002441406</ele>
        <time>2012-09-10T16:50:54Z</time>
      </trkpt>
      <trkpt lat="45.391" lon="3.7598">
        <ele>662.70001220703</ele>
        <time>2012-09-10T16:50:56Z</time>
      </trkpt>
      <trkpt lat="45.39107" lon="3.75982">
        <ele>663.09997558594</ele>
        <time>2012-09-10T16:50:59Z</time>
      </trkpt>
      <trkpt lat="45.39112" lon="3.75983">
        <ele>663</ele>
        <time>2012-09-10T16:51:02Z</time>
      </trkpt>
      <trkpt lat="45.39119" lon="3.75983">
        <ele>664.40002441406</ele>
        <time>2012-09-10T16:51:05Z</time>
      </trkpt>
      <trkpt lat="45.39125" lon="3.75987">
        <ele>663.90002441406</ele>
        <time>2012-09-10T16:51:09Z</time>
      </trkpt>
      <trkpt lat="45.3913" lon="3.7599">
        <ele>664.09997558594</ele>
        <time>2012-09-10T16:51:12Z</time>
      </trkpt>
      <trkpt lat="45.39134" lon="3.75994">
        <ele>664.09997558594</ele>
        <time>2012-09-10T16:51:15Z</time>
      </trkpt>
      <trkpt lat="45.39139" lon="3.75996">
        <ele>663.70001220703</ele>
        <time>2012-09-10T16:51:17Z</time>
      </trkpt>
      <trkpt lat="45.39143" lon="3.76">
        <ele>663.70001220703</ele>
        <time>2012-09-10T16:51:20Z</time>
      </trkpt>
      <trkpt lat="45.39149" lon="3.76001">
        <ele>663.29998779297</ele>
        <time>2012-09-10T16:51:23Z</time>
      </trkpt>
      <trkpt lat="45.39155" lon="3.76002">
        <ele>663.09997558594</ele>
        <time>2012-09-10T16:51:25Z</time>
      </trkpt>
      <trkpt lat="45.39159" lon="3.76004">
        <ele>662.09997558594</ele>
        <time>2012-09-10T16:51:28Z</time>
      </trkpt>
      <trkpt lat="45.39167" lon="3.76004">
        <ele>662.29998779297</ele>
        <time>2012-09-10T16:51:33Z</time>
      </trkpt>
      <trkpt lat="45.39172" lon="3.76005">
        <ele>662.59997558594</ele>
        <time>2012-09-10T16:51:35Z</time>
      </trkpt>
      <trkpt lat="45.39179" lon="3.76004">
        <ele>662.79998779297</ele>
        <time>2012-09-10T16:51:38Z</time>
      </trkpt>
      <trkpt lat="45.39184" lon="3.76005">
        <ele>662.79998779297</ele>
        <time>2012-09-10T16:51:41Z</time>
      </trkpt>
      <trkpt lat="45.39189" lon="3.76008">
        <ele>662.09997558594</ele>
        <time>2012-09-10T16:51:44Z</time>
      </trkpt>
      <trkpt lat="45.39195" lon="3.76011">
        <ele>662.90002441406</ele>
        <time>2012-09-10T16:51:46Z</time>
      </trkpt>
      <trkpt lat="45.39198" lon="3.76014">
        <ele>664.20001220703</ele>
        <time>2012-09-10T16:51:52Z</time>
      </trkpt>
      <trkpt lat="45.39202" lon="3.76019">
        <ele>664</ele>
        <time>2012-09-10T16:51:57Z</time>
      </trkpt>
      <trkpt lat="45.39206" lon="3.76022">
        <ele>665.79998779297</ele>
        <time>2012-09-10T16:52:04Z</time>
      </trkpt>
      <trkpt lat="45.39208" lon="3.76028">
        <ele>667</ele>
        <time>2012-09-10T16:52:08Z</time>
      </trkpt>
      <trkpt lat="45.39214" lon="3.76031">
        <ele>666.5</ele>
        <time>2012-09-10T16:52:12Z</time>
      </trkpt>
      <trkpt lat="45.39218" lon="3.76032">
        <ele>666.5</ele>
        <time>2012-09-10T16:52:15Z</time>
      </trkpt>
      <trkpt lat="45.39222" lon="3.76027">
        <ele>666.79998779297</ele>
        <time>2012-09-10T16:52:20Z</time>
      </trkpt>
      <trkpt lat="45.39227" lon="3.76024">
        <ele>666.59997558594</ele>
        <time>2012-09-10T16:52:23Z</time>
      </trkpt>
      <trkpt lat="45.39232" lon="3.76024">
        <ele>666.70001220703</ele>
        <time>2012-09-10T16:52:28Z</time>
      </trkpt>
      <trkpt lat="45.39239" lon="3.76026">
        <ele>667.5</ele>
        <time>2012-09-10T16:52:35Z</time>
      </trkpt>
      <trkpt lat="45.39243" lon="3.76029">
        <ele>666.90002441406</ele>
        <time>2012-09-10T16:52:39Z</time>
      </trkpt>
      <trkpt lat="45.39248" lon="3.76031">
        <ele>666.29998779297</ele>
        <time>2012-09-10T16:52:42Z</time>
      </trkpt>
      <trkpt lat="45.39253" lon="3.76031">
        <ele>665.29998779297</ele>
        <time>2012-09-10T16:52:50Z</time>
      </trkpt>
      <trkpt lat="45.39258" lon="3.76033">
        <ele>665</ele>
        <time>2012-09-10T16:52:57Z</time>
      </trkpt>
      <trkpt lat="45.39263" lon="3.76036">
        <ele>664.40002441406</ele>
        <time>2012-09-10T16:53:02Z</time>
      </trkpt>
      <trkpt lat="45.39268" lon="3.76038">
        <ele>663.59997558594</ele>
        <time>2012-09-10T16:53:10Z</time>
      </trkpt>
      <trkpt lat="45.39273" lon="3.76039">
        <ele>663.40002441406</ele>
        <time>2012-09-10T16:53:14Z</time>
      </trkpt>
      <trkpt lat="45.39278" lon="3.76039">
        <ele>664.70001220703</ele>
        <time>2012-09-10T16:53:20Z</time>
      </trkpt>
      <trkpt lat="45.39283" lon="3.76036">
        <ele>664.59997558594</ele>
        <time>2012-09-10T16:53:23Z</time>
      </trkpt>
      <trkpt lat="45.39288" lon="3.76038">
        <ele>664</ele>
        <time>2012-09-10T16:53:27Z</time>
      </trkpt>
      <trkpt lat="45.39293" lon="3.76039">
        <ele>663.09997558594</ele>
        <time>2012-09-10T16:53:31Z</time>
      </trkpt>
      <trkpt lat="45.39289" lon="3.76037">
        <ele>658.59997558594</ele>
        <time>2012-09-10T16:53:44Z</time>
      </trkpt>
      <trkpt lat="45.39284" lon="3.76035">
        <ele>658.59997558594</ele>
        <time>2012-09-10T16:53:47Z</time>
      </trkpt>
      <trkpt lat="45.39279" lon="3.76034">
        <ele>658.59997558594</ele>
        <time>2012-09-10T16:53:50Z</time>
      </trkpt>
      <trkpt lat="45.39274" lon="3.76032">
        <ele>658.70001220703</ele>
        <time>2012-09-10T16:53:53Z</time>
      </trkpt>
      <trkpt lat="45.39268" lon="3.76029">
        <ele>657.5</ele>
        <time>2012-09-10T16:53:57Z</time>
      </trkpt>
      <trkpt lat="45.39257" lon="3.76028">
        <ele>655.59997558594</ele>
        <time>2012-09-10T16:54:04Z</time>
      </trkpt>
      <trkpt lat="45.39252" lon="3.76028">
        <ele>655.09997558594</ele>
        <time>2012-09-10T16:54:08Z</time>
      </trkpt>
      <trkpt lat="45.39247" lon="3.76028">
        <ele>655.79998779297</ele>
        <time>2012-09-10T16:54:10Z</time>
      </trkpt>
      <trkpt lat="45.3924" lon="3.76029">
        <ele>655.79998779297</ele>
        <time>2012-09-10T16:54:13Z</time>
      </trkpt>
      <trkpt lat="45.39235" lon="3.76028">
        <ele>656.09997558594</ele>
        <time>2012-09-10T16:54:16Z</time>
      </trkpt>
      <trkpt lat="45.3923" lon="3.76027">
        <ele>656.59997558594</ele>
        <time>2012-09-10T16:54:19Z</time>
      </trkpt>
      <trkpt lat="45.39223" lon="3.76023">
        <ele>656.79998779297</ele>
        <time>2012-09-10T16:54:25Z</time>
      </trkpt>
      <trkpt lat="45.39217" lon="3.76024">
        <ele>656</ele>
        <time>2012-09-10T16:54:30Z</time>
      </trkpt>
      <trkpt lat="45.39212" lon="3.76024">
        <ele>656.79998779297</ele>
        <time>2012-09-10T16:54:34Z</time>
      </trkpt>
      <trkpt lat="45.39206" lon="3.76021">
        <ele>658.29998779297</ele>
        <time>2012-09-10T16:54:37Z</time>
      </trkpt>
      <trkpt lat="45.39199" lon="3.7602">
        <ele>658</ele>
        <time>2012-09-10T16:54:41Z</time>
      </trkpt>
      <trkpt lat="45.39194" lon="3.7602">
        <ele>658.40002441406</ele>
        <time>2012-09-10T16:54:43Z</time>
      </trkpt>
      <trkpt lat="45.39181" lon="3.76011">
        <ele>656.59997558594</ele>
        <time>2012-09-10T16:54:50Z</time>
      </trkpt>
      <trkpt lat="45.39176" lon="3.76009">
        <ele>656.5</ele>
        <time>2012-09-10T16:54:52Z</time>
      </trkpt>
      <trkpt lat="45.39171" lon="3.76006">
        <ele>656.70001220703</ele>
        <time>2012-09-10T16:54:56Z</time>
      </trkpt>
      <trkpt lat="45.39165" lon="3.76003">
        <ele>656.90002441406</ele>
        <time>2012-09-10T16:54:59Z</time>
      </trkpt>
      <trkpt lat="45.39159" lon="3.76001">
        <ele>656.29998779297</ele>
        <time>2012-09-10T16:55:02Z</time>
      </trkpt>
      <trkpt lat="45.39153" lon="3.76002">
        <ele>656.5</ele>
        <time>2012-09-10T16:55:05Z</time>
      </trkpt>
      <trkpt lat="45.39149" lon="3.75999">
        <ele>656.40002441406</ele>
        <time>2012-09-10T16:55:08Z</time>
      </trkpt>
      <trkpt lat="45.39144" lon="3.75998">
        <ele>655.79998779297</ele>
        <time>2012-09-10T16:55:10Z</time>
      </trkpt>
      <trkpt lat="45.39139" lon="3.75997">
        <ele>656</ele>
        <time>2012-09-10T16:55:12Z</time>
      </trkpt>
      <trkpt lat="45.39134" lon="3.75996">
        <ele>656.29998779297</ele>
        <time>2012-09-10T16:55:14Z</time>
      </trkpt>
      <trkpt lat="45.3913" lon="3.75993">
        <ele>655.79998779297</ele>
        <time>2012-09-10T16:55:16Z</time>
      </trkpt>
      <trkpt lat="45.39126" lon="3.75989">
        <ele>657.09997558594</ele>
        <time>2012-09-10T16:55:18Z</time>
      </trkpt>
      <trkpt lat="45.39122" lon="3.75985">
        <ele>659</ele>
        <time>2012-09-10T16:55:22Z</time>
      </trkpt>
      <trkpt lat="45.39115" lon="3.75984">
        <ele>657.40002441406</ele>
        <time>2012-09-10T16:55:26Z</time>
      </trkpt>
      <trkpt lat="45.39111" lon="3.75981">
        <ele>657.40002441406</ele>
        <time>2012-09-10T16:55:29Z</time>
      </trkpt>
      <trkpt lat="45.39106" lon="3.75979">
        <ele>657.40002441406</ele>
        <time>2012-09-10T16:55:33Z</time>
      </trkpt>
      <trkpt lat="45.39102" lon="3.75976">
        <ele>656.90002441406</ele>
        <time>2012-09-10T16:55:36Z</time>
      </trkpt>
      <trkpt lat="45.39097" lon="3.75976">
        <ele>657.40002441406</ele>
        <time>2012-09-10T16:55:45Z</time>
      </trkpt>
      <trkpt lat="45.39091" lon="3.75974">
        <ele>660</ele>
        <time>2012-09-10T16:55:49Z</time>
      </trkpt>
      <trkpt lat="45.39082" lon="3.75962">
        <ele>661.5</ele>
        <time>2012-09-10T16:55:59Z</time>
      </trkpt>
      <trkpt lat="45.39076" lon="3.7596">
        <ele>661.20001220703</ele>
        <time>2012-09-10T16:56:05Z</time>
      </trkpt>
      <trkpt lat="45.39071" lon="3.75961">
        <ele>660.90002441406</ele>
        <time>2012-09-10T16:56:08Z</time>
      </trkpt>
      <trkpt lat="45.39066" lon="3.75958">
        <ele>659.29998779297</ele>
        <time>2012-09-10T16:56:12Z</time>
      </trkpt>
      <trkpt lat="45.39061" lon="3.75957">
        <ele>658.90002441406</ele>
        <time>2012-09-10T16:56:16Z</time>
      </trkpt>
      <trkpt lat="45.39056" lon="3.75956">
        <ele>657.59997558594</ele>
        <time>2012-09-10T16:56:21Z</time>
      </trkpt>
      <trkpt lat="45.39052" lon="3.75954">
        <ele>657.59997558594</ele>
        <time>2012-09-10T16:56:26Z</time>
      </trkpt>
      <trkpt lat="45.39046" lon="3.75953">
        <ele>655.40002441406</ele>
        <time>2012-09-10T16:56:32Z</time>
      </trkpt>
      <trkpt lat="45.39041" lon="3.75953">
        <ele>655.59997558594</ele>
        <time>2012-09-10T16:56:35Z</time>
      </trkpt>
      <trkpt lat="45.39037" lon="3.75951">
        <ele>654.5</ele>
        <time>2012-09-10T16:56:41Z</time>
      </trkpt>
      <trkpt lat="45.39032" lon="3.75951">
        <ele>654.5</ele>
        <time>2012-09-10T16:56:46Z</time>
      </trkpt>
      <trkpt lat="45.39027" lon="3.75947">
        <ele>653.59997558594</ele>
        <time>2012-09-10T16:56:50Z</time>
      </trkpt>
      <trkpt lat="45.39019" lon="3.75942">
        <ele>653.59997558594</ele>
        <time>2012-09-10T16:56:58Z</time>
      </trkpt>
      <trkpt lat="45.39014" lon="3.75941">
        <ele>652.79998779297</ele>
        <time>2012-09-10T16:57:02Z</time>
      </trkpt>
      <trkpt lat="45.39008" lon="3.75938">
        <ele>652.90002441406</ele>
        <time>2012-09-10T16:57:09Z</time>
      </trkpt>
      <trkpt lat="45.39003" lon="3.75937">
        <ele>652</ele>
        <time>2012-09-10T16:57:15Z</time>
      </trkpt>
      <trkpt lat="45.38998" lon="3.75935">
        <ele>652</ele>
        <time>2012-09-10T16:57:20Z</time>
      </trkpt>
      <trkpt lat="45.38992" lon="3.75932">
        <ele>651.20001220703</ele>
        <time>2012-09-10T16:57:26Z</time>
      </trkpt>
      <trkpt lat="45.38987" lon="3.7593">
        <ele>649.20001220703</ele>
        <time>2012-09-10T16:57:31Z</time>
      </trkpt>
      <trkpt lat="45.38983" lon="3.75926">
        <ele>651</ele>
        <time>2012-09-10T16:57:34Z</time>
      </trkpt>
      <trkpt lat="45.38978" lon="3.75925">
        <ele>652.79998779297</ele>
        <time>2012-09-10T16:57:39Z</time>
      </trkpt>
      <trkpt lat="45.38972" lon="3.75922">
        <ele>653.20001220703</ele>
        <time>2012-09-10T16:57:43Z</time>
      </trkpt>
      <trkpt lat="45.38966" lon="3.75921">
        <ele>653.90002441406</ele>
        <time>2012-09-10T16:57:46Z</time>
      </trkpt>
      <trkpt lat="45.38962" lon="3.75916">
        <ele>652.59997558594</ele>
        <time>2012-09-10T16:57:50Z</time>
      </trkpt>
      <trkpt lat="45.38957" lon="3.75915">
        <ele>653.40002441406</ele>
        <time>2012-09-10T16:57:53Z</time>
      </trkpt>
      <trkpt lat="45.38951" lon="3.75915">
        <ele>653.29998779297</ele>
        <time>2012-09-10T16:57:56Z</time>
      </trkpt>
      <trkpt lat="45.38946" lon="3.75916">
        <ele>654</ele>
        <time>2012-09-10T16:57:58Z</time>
      </trkpt>
      <trkpt lat="45.3894" lon="3.75918">
        <ele>654.20001220703</ele>
        <time>2012-09-10T16:58:01Z</time>
      </trkpt>
      <trkpt lat="45.38935" lon="3.75918">
        <ele>654.5</ele>
        <time>2012-09-10T16:58:05Z</time>
      </trkpt>
      <trkpt lat="45.38931" lon="3.75917">
        <ele>655.40002441406</ele>
        <time>2012-09-10T16:58:08Z</time>
      </trkpt>
      <trkpt lat="45.38926" lon="3.75915">
        <ele>654.70001220703</ele>
        <time>2012-09-10T16:58:11Z</time>
      </trkpt>
      <trkpt lat="45.38919" lon="3.75917">
        <ele>653.59997558594</ele>
        <time>2012-09-10T16:58:15Z</time>
      </trkpt>
      <trkpt lat="45.38912" lon="3.75918">
        <ele>655.70001220703</ele>
        <time>2012-09-10T16:58:18Z</time>
      </trkpt>
      <trkpt lat="45.38905" lon="3.75917">
        <ele>655.70001220703</ele>
        <time>2012-09-10T16:58:22Z</time>
      </trkpt>
      <trkpt lat="45.38899" lon="3.75919">
        <ele>656.70001220703</ele>
        <time>2012-09-10T16:58:25Z</time>
      </trkpt>
      <trkpt lat="45.38894" lon="3.75919">
        <ele>656.20001220703</ele>
        <time>2012-09-10T16:58:28Z</time>
      </trkpt>
      <trkpt lat="45.38889" lon="3.75921">
        <ele>655.40002441406</ele>
        <time>2012-09-10T16:58:31Z</time>
      </trkpt>
      <trkpt lat="45.38883" lon="3.75922">
        <ele>656.29998779297</ele>
        <time>2012-09-10T16:58:35Z</time>
      </trkpt>
      <trkpt lat="45.38877" lon="3.75923">
        <ele>655.29998779297</ele>
        <time>2012-09-10T16:58:38Z</time>
      </trkpt>
      <trkpt lat="45.3887" lon="3.75922">
        <ele>655.09997558594</ele>
        <time>2012-09-10T16:58:41Z</time>
      </trkpt>
      <trkpt lat="45.38865" lon="3.75922">
        <ele>656</ele>
        <time>2012-09-10T16:58:45Z</time>
      </trkpt>
      <trkpt lat="45.3886" lon="3.7592">
        <ele>654.40002441406</ele>
        <time>2012-09-10T16:58:50Z</time>
      </trkpt>
      <trkpt lat="45.38855" lon="3.75923">
        <ele>653.59997558594</ele>
        <time>2012-09-10T16:58:55Z</time>
      </trkpt>
      <trkpt lat="45.3885" lon="3.75923">
        <ele>652.90002441406</ele>
        <time>2012-09-10T16:58:59Z</time>
      </trkpt>
      <trkpt lat="45.38845" lon="3.75921">
        <ele>651.5</ele>
        <time>2012-09-10T16:59:03Z</time>
      </trkpt>
      <trkpt lat="45.3884" lon="3.75921">
        <ele>652.09997558594</ele>
        <time>2012-09-10T16:59:06Z</time>
      </trkpt>
      <trkpt lat="45.38835" lon="3.75924">
        <ele>651.70001220703</ele>
        <time>2012-09-10T16:59:11Z</time>
      </trkpt>
      <trkpt lat="45.38829" lon="3.75926">
        <ele>652.29998779297</ele>
        <time>2012-09-10T16:59:15Z</time>
      </trkpt>
      <trkpt lat="45.38824" lon="3.75925">
        <ele>652.20001220703</ele>
        <time>2012-09-10T16:59:18Z</time>
      </trkpt>
      <trkpt lat="45.38821" lon="3.7592">
        <ele>652.5</ele>
        <time>2012-09-10T16:59:23Z</time>
      </trkpt>
      <trkpt lat="45.38815" lon="3.7592">
        <ele>652.20001220703</ele>
        <time>2012-09-10T16:59:28Z</time>
      </trkpt>
      <trkpt lat="45.38811" lon="3.75917">
        <ele>651.90002441406</ele>
        <time>2012-09-10T16:59:31Z</time>
      </trkpt>
      <trkpt lat="45.38807" lon="3.75915">
        <ele>651.59997558594</ele>
        <time>2012-09-10T16:59:35Z</time>
      </trkpt>
      <trkpt lat="45.38799" lon="3.75911">
        <ele>652.09997558594</ele>
        <time>2012-09-10T16:59:43Z</time>
      </trkpt>
      <trkpt lat="45.38795" lon="3.7591">
        <ele>653</ele>
        <time>2012-09-10T16:59:47Z</time>
      </trkpt>
      <trkpt lat="45.3879" lon="3.75909">
        <ele>653.20001220703</ele>
        <time>2012-09-10T16:59:51Z</time>
      </trkpt>
      <trkpt lat="45.38785" lon="3.75905">
        <ele>653.90002441406</ele>
        <time>2012-09-10T16:59:55Z</time>
      </trkpt>
      <trkpt lat="45.3878" lon="3.75903">
        <ele>653.09997558594</ele>
        <time>2012-09-10T16:59:59Z</time>
      </trkpt>
      <trkpt lat="45.38775" lon="3.75899">
        <ele>653.70001220703</ele>
        <time>2012-09-10T17:00:04Z</time>
      </trkpt>
      <trkpt lat="45.38771" lon="3.75894">
        <ele>655</ele>
        <time>2012-09-10T17:00:08Z</time>
      </trkpt>
      <trkpt lat="45.38766" lon="3.75893">
        <ele>655.09997558594</ele>
        <time>2012-09-10T17:00:12Z</time>
      </trkpt>
      <trkpt lat="45.38761" lon="3.75891">
        <ele>655.79998779297</ele>
        <time>2012-09-10T17:00:16Z</time>
      </trkpt>
      <trkpt lat="45.38758" lon="3.75885">
        <ele>655.90002441406</ele>
        <time>2012-09-10T17:00:20Z</time>
      </trkpt>
      <trkpt lat="45.38754" lon="3.75882">
        <ele>656.29998779297</ele>
        <time>2012-09-10T17:00:24Z</time>
      </trkpt>
      <trkpt lat="45.38751" lon="3.75875">
        <ele>656.20001220703</ele>
        <time>2012-09-10T17:00:30Z</time>
      </trkpt>
      <trkpt lat="45.38747" lon="3.75869">
        <ele>657</ele>
        <time>2012-09-10T17:00:34Z</time>
      </trkpt>
      <trkpt lat="45.38743" lon="3.75863">
        <ele>657.90002441406</ele>
        <time>2012-09-10T17:00:38Z</time>
      </trkpt>
      <trkpt lat="45.38738" lon="3.75857">
        <ele>658.79998779297</ele>
        <time>2012-09-10T17:00:41Z</time>
      </trkpt>
      <trkpt lat="45.38735" lon="3.75853">
        <ele>657.40002441406</ele>
        <time>2012-09-10T17:00:44Z</time>
      </trkpt>
      <trkpt lat="45.38731" lon="3.75847">
        <ele>658</ele>
        <time>2012-09-10T17:00:47Z</time>
      </trkpt>
      <trkpt lat="45.38726" lon="3.75843">
        <ele>658.40002441406</ele>
        <time>2012-09-10T17:00:49Z</time>
      </trkpt>
      <trkpt lat="45.38724" lon="3.75838">
        <ele>659.29998779297</ele>
        <time>2012-09-10T17:00:51Z</time>
      </trkpt>
      <trkpt lat="45.38718" lon="3.75832">
        <ele>658.5</ele>
        <time>2012-09-10T17:00:54Z</time>
      </trkpt>
      <trkpt lat="45.38712" lon="3.75828">
        <ele>658.5</ele>
        <time>2012-09-10T17:00:56Z</time>
      </trkpt>
      <trkpt lat="45.38707" lon="3.75823">
        <ele>658.70001220703</ele>
        <time>2012-09-10T17:00:58Z</time>
      </trkpt>
      <trkpt lat="45.38703" lon="3.75819">
        <ele>658</ele>
        <time>2012-09-10T17:01:01Z</time>
      </trkpt>
      <trkpt lat="45.387" lon="3.75813">
        <ele>658.5</ele>
        <time>2012-09-10T17:01:04Z</time>
      </trkpt>
      <trkpt lat="45.38695" lon="3.75806">
        <ele>659.90002441406</ele>
        <time>2012-09-10T17:01:07Z</time>
      </trkpt>
      <trkpt lat="45.38692" lon="3.75802">
        <ele>660.5</ele>
        <time>2012-09-10T17:01:09Z</time>
      </trkpt>
      <trkpt lat="45.38687" lon="3.75796">
        <ele>660.40002441406</ele>
        <time>2012-09-10T17:01:12Z</time>
      </trkpt>
      <trkpt lat="45.38684" lon="3.75792">
        <ele>660</ele>
        <time>2012-09-10T17:01:15Z</time>
      </trkpt>
      <trkpt lat="45.38679" lon="3.75787">
        <ele>660.70001220703</ele>
        <time>2012-09-10T17:01:18Z</time>
      </trkpt>
      <trkpt lat="45.38677" lon="3.75781">
        <ele>660.40002441406</ele>
        <time>2012-09-10T17:01:21Z</time>
      </trkpt>
      <trkpt lat="45.38673" lon="3.75777">
        <ele>659.5</ele>
        <time>2012-09-10T17:01:23Z</time>
      </trkpt>
      <trkpt lat="45.3867" lon="3.75773">
        <ele>660.59997558594</ele>
        <time>2012-09-10T17:01:25Z</time>
      </trkpt>
      <trkpt lat="45.38665" lon="3.75768">
        <ele>663.40002441406</ele>
        <time>2012-09-10T17:01:27Z</time>
      </trkpt>
      <trkpt lat="45.38658" lon="3.75758">
        <ele>664.40002441406</ele>
        <time>2012-09-10T17:01:32Z</time>
      </trkpt>
      <trkpt lat="45.38654" lon="3.75754">
        <ele>663.70001220703</ele>
        <time>2012-09-10T17:01:34Z</time>
      </trkpt>
      <trkpt lat="45.38649" lon="3.75748">
        <ele>662.90002441406</ele>
        <time>2012-09-10T17:01:37Z</time>
      </trkpt>
      <trkpt lat="45.38644" lon="3.75742">
        <ele>662.79998779297</ele>
        <time>2012-09-10T17:01:40Z</time>
      </trkpt>
      <trkpt lat="45.38634" lon="3.7573">
        <ele>662.79998779297</ele>
        <time>2012-09-10T17:01:45Z</time>
      </trkpt>
      <trkpt lat="45.38629" lon="3.75725">
        <ele>663.40002441406</ele>
        <time>2012-09-10T17:01:48Z</time>
      </trkpt>
      <trkpt lat="45.38626" lon="3.7572">
        <ele>664.09997558594</ele>
        <time>2012-09-10T17:01:51Z</time>
      </trkpt>
      <trkpt lat="45.38621" lon="3.75712">
        <ele>663.90002441406</ele>
        <time>2012-09-10T17:01:55Z</time>
      </trkpt>
      <trkpt lat="45.38617" lon="3.75707">
        <ele>663.90002441406</ele>
        <time>2012-09-10T17:01:58Z</time>
      </trkpt>
      <trkpt lat="45.38612" lon="3.75701">
        <ele>664.29998779297</ele>
        <time>2012-09-10T17:02:03Z</time>
      </trkpt>
      <trkpt lat="45.38606" lon="3.75698">
        <ele>666</ele>
        <time>2012-09-10T17:02:05Z</time>
      </trkpt>
      <trkpt lat="45.38598" lon="3.75693">
        <ele>666</ele>
        <time>2012-09-10T17:02:10Z</time>
      </trkpt>
      <trkpt lat="45.38592" lon="3.75691">
        <ele>666.09997558594</ele>
        <time>2012-09-10T17:02:15Z</time>
      </trkpt>
      <trkpt lat="45.38586" lon="3.75683">
        <ele>665.59997558594</ele>
        <time>2012-09-10T17:02:20Z</time>
      </trkpt>
      <trkpt lat="45.38582" lon="3.7568">
        <ele>665.5</ele>
        <time>2012-09-10T17:02:25Z</time>
      </trkpt>
      <trkpt lat="45.38577" lon="3.75678">
        <ele>665</ele>
        <time>2012-09-10T17:02:29Z</time>
      </trkpt>
      <trkpt lat="45.38572" lon="3.75676">
        <ele>664.70001220703</ele>
        <time>2012-09-10T17:02:32Z</time>
      </trkpt>
      <trkpt lat="45.38565" lon="3.75671">
        <ele>663.70001220703</ele>
        <time>2012-09-10T17:02:39Z</time>
      </trkpt>
      <trkpt lat="45.38561" lon="3.75673">
        <ele>661.5</ele>
        <time>2012-09-10T17:02:44Z</time>
      </trkpt>
      <trkpt lat="45.38555" lon="3.75673">
        <ele>660.59997558594</ele>
        <time>2012-09-10T17:02:48Z</time>
      </trkpt>
      <trkpt lat="45.3855" lon="3.75673">
        <ele>660.09997558594</ele>
        <time>2012-09-10T17:02:53Z</time>
      </trkpt>
      <trkpt lat="45.38545" lon="3.75672">
        <ele>659</ele>
        <time>2012-09-10T17:03:00Z</time>
      </trkpt>
      <trkpt lat="45.38541" lon="3.75674">
        <ele>658.79998779297</ele>
        <time>2012-09-10T17:03:04Z</time>
      </trkpt>
      <trkpt lat="45.38536" lon="3.75676">
        <ele>655.59997558594</ele>
        <time>2012-09-10T17:03:08Z</time>
      </trkpt>
      <trkpt lat="45.38529" lon="3.75676">
        <ele>658.29998779297</ele>
        <time>2012-09-10T17:03:13Z</time>
      </trkpt>
      <trkpt lat="45.38526" lon="3.75673">
        <ele>659</ele>
        <time>2012-09-10T17:03:16Z</time>
      </trkpt>
      <trkpt lat="45.3852" lon="3.75671">
        <ele>659.20001220703</ele>
        <time>2012-09-10T17:03:19Z</time>
      </trkpt>
      <trkpt lat="45.38516" lon="3.7567">
        <ele>658.90002441406</ele>
        <time>2012-09-10T17:03:22Z</time>
      </trkpt>
      <trkpt lat="45.38512" lon="3.75664">
        <ele>659.09997558594</ele>
        <time>2012-09-10T17:03:25Z</time>
      </trkpt>
      <trkpt lat="45.38511" lon="3.75657">
        <ele>658.59997558594</ele>
        <time>2012-09-10T17:03:29Z</time>
      </trkpt>
      <trkpt lat="45.38513" lon="3.7565">
        <ele>657.29998779297</ele>
        <time>2012-09-10T17:03:35Z</time>
      </trkpt>
      <trkpt lat="45.38511" lon="3.75643">
        <ele>658.59997558594</ele>
        <time>2012-09-10T17:03:40Z</time>
      </trkpt>
      <trkpt lat="45.38512" lon="3.75636">
        <ele>658</ele>
        <time>2012-09-10T17:03:58Z</time>
      </trkpt>
      <trkpt lat="45.38514" lon="3.75622">
        <ele>658</ele>
        <time>2012-09-10T17:04:02Z</time>
      </trkpt>
      <trkpt lat="45.38514" lon="3.75612">
        <ele>658.29998779297</ele>
        <time>2012-09-10T17:04:05Z</time>
      </trkpt>
      <trkpt lat="45.38513" lon="3.75604">
        <ele>659</ele>
        <time>2012-09-10T17:04:08Z</time>
      </trkpt>
      <trkpt lat="45.38512" lon="3.75597">
        <ele>659.40002441406</ele>
        <time>2012-09-10T17:04:11Z</time>
      </trkpt>
      <trkpt lat="45.38509" lon="3.75591">
        <ele>660.20001220703</ele>
        <time>2012-09-10T17:04:16Z</time>
      </trkpt>
      <trkpt lat="45.38508" lon="3.75584">
        <ele>659.5</ele>
        <time>2012-09-10T17:04:20Z</time>
      </trkpt>
      <trkpt lat="45.38505" lon="3.75577">
        <ele>658.09997558594</ele>
        <time>2012-09-10T17:04:24Z</time>
      </trkpt>
      <trkpt lat="45.38503" lon="3.75568">
        <ele>659</ele>
        <time>2012-09-10T17:04:29Z</time>
      </trkpt>
      <trkpt lat="45.385" lon="3.75561">
        <ele>660.90002441406</ele>
        <time>2012-09-10T17:04:33Z</time>
      </trkpt>
      <trkpt lat="45.38502" lon="3.75553">
        <ele>662.40002441406</ele>
        <time>2012-09-10T17:04:39Z</time>
      </trkpt>
      <trkpt lat="45.38503" lon="3.75545">
        <ele>662.5</ele>
        <time>2012-09-10T17:04:43Z</time>
      </trkpt>
      <trkpt lat="45.38502" lon="3.75539">
        <ele>662</ele>
        <time>2012-09-10T17:04:47Z</time>
      </trkpt>
      <trkpt lat="45.38499" lon="3.75534">
        <ele>662.90002441406</ele>
        <time>2012-09-10T17:04:50Z</time>
      </trkpt>
      <trkpt lat="45.38497" lon="3.75526">
        <ele>663.20001220703</ele>
        <time>2012-09-10T17:04:55Z</time>
      </trkpt>
      <trkpt lat="45.38494" lon="3.75521">
        <ele>663</ele>
        <time>2012-09-10T17:04:58Z</time>
      </trkpt>
      <trkpt lat="45.38492" lon="3.75514">
        <ele>663.70001220703</ele>
        <time>2012-09-10T17:05:01Z</time>
      </trkpt>
      <trkpt lat="45.38493" lon="3.75506">
        <ele>664.90002441406</ele>
        <time>2012-09-10T17:05:08Z</time>
      </trkpt>
      <trkpt lat="45.38491" lon="3.755">
        <ele>666.79998779297</ele>
        <time>2012-09-10T17:05:14Z</time>
      </trkpt>
      <trkpt lat="45.38487" lon="3.75493">
        <ele>665.29998779297</ele>
        <time>2012-09-10T17:05:18Z</time>
      </trkpt>
      <trkpt lat="45.38485" lon="3.75486">
        <ele>665.20001220703</ele>
        <time>2012-09-10T17:05:23Z</time>
      </trkpt>
      <trkpt lat="45.38482" lon="3.7548">
        <ele>666.59997558594</ele>
        <time>2012-09-10T17:05:27Z</time>
      </trkpt>
      <trkpt lat="45.38477" lon="3.75469">
        <ele>666.09997558594</ele>
        <time>2012-09-10T17:05:34Z</time>
      </trkpt>
      <trkpt lat="45.38475" lon="3.75463">
        <ele>667.09997558594</ele>
        <time>2012-09-10T17:05:39Z</time>
      </trkpt>
      <trkpt lat="45.38471" lon="3.75457">
        <ele>666.40002441406</ele>
        <time>2012-09-10T17:05:42Z</time>
      </trkpt>
      <trkpt lat="45.38471" lon="3.7545">
        <ele>664.59997558594</ele>
        <time>2012-09-10T17:05:47Z</time>
      </trkpt>
      <trkpt lat="45.38465" lon="3.7543">
        <ele>663.70001220703</ele>
        <time>2012-09-10T17:06:09Z</time>
      </trkpt>
      <trkpt lat="45.38464" lon="3.75422">
        <ele>664.70001220703</ele>
        <time>2012-09-10T17:06:11Z</time>
      </trkpt>
      <trkpt lat="45.38464" lon="3.75413">
        <ele>664.79998779297</ele>
        <time>2012-09-10T17:06:14Z</time>
      </trkpt>
      <trkpt lat="45.38463" lon="3.75405">
        <ele>666.59997558594</ele>
        <time>2012-09-10T17:06:17Z</time>
      </trkpt>
      <trkpt lat="45.38462" lon="3.75397">
        <ele>669</ele>
        <time>2012-09-10T17:06:21Z</time>
      </trkpt>
      <trkpt lat="45.38461" lon="3.7539">
        <ele>669.5</ele>
        <time>2012-09-10T17:06:24Z</time>
      </trkpt>
      <trkpt lat="45.38459" lon="3.75381">
        <ele>670</ele>
        <time>2012-09-10T17:06:27Z</time>
      </trkpt>
      <trkpt lat="45.38457" lon="3.7537">
        <ele>668.79998779297</ele>
        <time>2012-09-10T17:06:32Z</time>
      </trkpt>
      <trkpt lat="45.38453" lon="3.75361">
        <ele>668.79998779297</ele>
        <time>2012-09-10T17:06:35Z</time>
      </trkpt>
      <trkpt lat="45.38449" lon="3.75353">
        <ele>667.90002441406</ele>
        <time>2012-09-10T17:06:39Z</time>
      </trkpt>
      <trkpt lat="45.38448" lon="3.75345">
        <ele>668.79998779297</ele>
        <time>2012-09-10T17:06:43Z</time>
      </trkpt>
      <trkpt lat="45.38445" lon="3.75339">
        <ele>670.70001220703</ele>
        <time>2012-09-10T17:06:46Z</time>
      </trkpt>
      <trkpt lat="45.38441" lon="3.75333">
        <ele>670.29998779297</ele>
        <time>2012-09-10T17:06:49Z</time>
      </trkpt>
      <trkpt lat="45.38437" lon="3.7532">
        <ele>669.40002441406</ele>
        <time>2012-09-10T17:06:54Z</time>
      </trkpt>
      <trkpt lat="45.38434" lon="3.75313">
        <ele>670.09997558594</ele>
        <time>2012-09-10T17:06:58Z</time>
      </trkpt>
      <trkpt lat="45.38431" lon="3.75308">
        <ele>670.29998779297</ele>
        <time>2012-09-10T17:07:00Z</time>
      </trkpt>
      <trkpt lat="45.3843" lon="3.75296">
        <ele>668.09997558594</ele>
        <time>2012-09-10T17:07:06Z</time>
      </trkpt>
      <trkpt lat="45.38429" lon="3.75289">
        <ele>668.09997558594</ele>
        <time>2012-09-10T17:07:09Z</time>
      </trkpt>
      <trkpt lat="45.38426" lon="3.75279">
        <ele>668.79998779297</ele>
        <time>2012-09-10T17:07:13Z</time>
      </trkpt>
      <trkpt lat="45.38424" lon="3.7527">
        <ele>666.79998779297</ele>
        <time>2012-09-10T17:07:19Z</time>
      </trkpt>
      <trkpt lat="45.38424" lon="3.75263">
        <ele>666.79998779297</ele>
        <time>2012-09-10T17:07:22Z</time>
      </trkpt>
      <trkpt lat="45.38422" lon="3.75257">
        <ele>666.70001220703</ele>
        <time>2012-09-10T17:07:25Z</time>
      </trkpt>
      <trkpt lat="45.38417" lon="3.7525">
        <ele>666.29998779297</ele>
        <time>2012-09-10T17:07:29Z</time>
      </trkpt>
    </trkseg>
  </trk>
</gpx>